sensor_id;sensor_type;location;lat;lon;timestamp;temperature;humidity
2907;DHT22;1463;51.070;16.998;2024-01-30T00:00:01;3.80;99.90
2907;DHT22;1463;51.070;16.998;2024-01-30T00:02:30;3.70;99.90
2907;DHT22;1463;51.070;16.998;2024-01-30T00:04:57;3.70;99.90
2907;DHT22;1463;51.070;16.998;2024-01-30T00:07:23;3.60;99.90
2907;DHT22;1463;51.070;16.998;2024-01-30T00:09:50;3.70;99.90
2907;DHT22;1463;51.070;16.998;2024-01-30T00:12:16;3.80;99.90
2907;DHT22;1463;51.070;16.998;2024-01-30T00:14:43;3.80;99.90
2907;DHT22;1463;51.070;16.998;2024-01-30T00:17:10;3.60;99.90
2907;DHT22;1463;51.070;16.998;2024-01-30T00:19:38;3.60;99.90
2907;DHT22;1463;51.070;16.998;2024-01-30T00:22:04;3.50;99.90
2907;DHT22;1463;51.070;16.998;2024-01-30T00:24:31;3.30;99.90
2907;DHT22;1463;51.070;16.998;2024-01-30T00:26:58;3.20;99.90
2907;DHT22;1463;51.070;16.998;2024-01-30T00:29:24;3.40;99.90
2907;DHT22;1463;51.070;16.998;2024-01-30T00:31:55;3.40;99.90
2907;DHT22;1463;51.070;16.998;2024-01-30T00:34:22;3.40;99.90
2907;DHT22;1463;51.070;16.998;2024-01-30T00:36:50;3.40;99.90
2907;DHT22;1463;51.070;16.998;2024-01-30T00:39:17;3.30;99.90
2907;DHT22;1463;51.070;16.998;2024-01-30T00:41:45;3.20;99.90
2907;DHT22;1463;51.070;16.998;2024-01-30T00:44:11;3.30;99.90
2907;DHT22;1463;51.070;16.998;2024-01-30T00:46:38;3.30;99.90
2907;DHT22;1463;51.070;16.998;2024-01-30T00:49:05;3.30;99.90
2907;DHT22;1463;51.070;16.998;2024-01-30T00:51:31;3.30;99.90
2907;DHT22;1463;51.070;16.998;2024-01-30T00:53:59;3.20;99.90
2907;DHT22;1463;51.070;16.998;2024-01-30T00:56:26;3.20;99.90
2907;DHT22;1463;51.070;16.998;2024-01-30T00:58:53;3.00;99.90
2907;DHT22;1463;51.070;16.998;2024-01-30T01:01:19;3.00;99.90
2907;DHT22;1463;51.070;16.998;2024-01-30T01:03:46;2.90;99.90
2907;DHT22;1463;51.070;16.998;2024-01-30T01:06:13;3.00;99.90
2907;DHT22;1463;51.070;16.998;2024-01-30T01:08:40;3.00;99.90
2907;DHT22;1463;51.070;16.998;2024-01-30T01:11:08;3.00;99.90
2907;DHT22;1463;51.070;16.998;2024-01-30T01:13:35;3.00;99.90
2907;DHT22;1463;51.070;16.998;2024-01-30T01:16:02;3.00;99.90
2907;DHT22;1463;51.070;16.998;2024-01-30T01:18:29;3.10;99.90
2907;DHT22;1463;51.070;16.998;2024-01-30T01:20:56;3.10;99.90
2907;DHT22;1463;51.070;16.998;2024-01-30T01:23:22;3.00;99.90
2907;DHT22;1463;51.070;16.998;2024-01-30T01:25:49;2.80;99.90
2907;DHT22;1463;51.070;16.998;2024-01-30T01:28:17;2.80;99.90
2907;DHT22;1463;51.070;16.998;2024-01-30T01:30:44;2.90;99.90
2907;DHT22;1463;51.070;16.998;2024-01-30T01:33:10;2.90;99.90
2907;DHT22;1463;51.070;16.998;2024-01-30T01:35:39;2.90;99.90
2907;DHT22;1463;51.070;16.998;2024-01-30T01:38:06;2.90;99.90
2907;DHT22;1463;51.070;16.998;2024-01-30T01:40:33;3.00;99.90
2907;DHT22;1463;51.070;16.998;2024-01-30T01:43:03;3.00;99.90
2907;DHT22;1463;51.070;16.998;2024-01-30T01:45:31;2.90;99.90
2907;DHT22;1463;51.070;16.998;2024-01-30T01:47:58;2.90;99.90
2907;DHT22;1463;51.070;16.998;2024-01-30T01:50:25;2.80;99.90
2907;DHT22;1463;51.070;16.998;2024-01-30T01:52:52;2.80;99.90
2907;DHT22;1463;51.070;16.998;2024-01-30T01:55:20;2.80;99.90
2907;DHT22;1463;51.070;16.998;2024-01-30T01:57:49;2.60;99.90
2907;DHT22;1463;51.070;16.998;2024-01-30T02:00:16;2.70;99.90
2907;DHT22;1463;51.070;16.998;2024-01-30T02:02:46;2.50;99.90
2907;DHT22;1463;51.070;16.998;2024-01-30T02:05:13;2.60;99.90
2907;DHT22;1463;51.070;16.998;2024-01-30T02:07:41;2.60;99.90
2907;DHT22;1463;51.070;16.998;2024-01-30T02:10:08;2.70;99.90
2907;DHT22;1463;51.070;16.998;2024-01-30T02:12:35;2.60;99.90
2907;DHT22;1463;51.070;16.998;2024-01-30T02:15:02;2.60;99.90
2907;DHT22;1463;51.070;16.998;2024-01-30T02:17:30;2.60;99.90
2907;DHT22;1463;51.070;16.998;2024-01-30T02:19:58;2.60;99.90
2907;DHT22;1463;51.070;16.998;2024-01-30T02:22:26;2.60;99.90
2907;DHT22;1463;51.070;16.998;2024-01-30T02:24:53;2.50;99.90
2907;DHT22;1463;51.070;16.998;2024-01-30T02:27:19;2.50;99.90
2907;DHT22;1463;51.070;16.998;2024-01-30T02:29:46;2.40;99.90
2907;DHT22;1463;51.070;16.998;2024-01-30T02:32:13;2.50;99.90
2907;DHT22;1463;51.070;16.998;2024-01-30T02:34:39;2.60;99.90
2907;DHT22;1463;51.070;16.998;2024-01-30T02:37:06;2.50;99.90
2907;DHT22;1463;51.070;16.998;2024-01-30T02:39:34;2.40;99.90
2907;DHT22;1463;51.070;16.998;2024-01-30T02:42:01;2.60;99.90
2907;DHT22;1463;51.070;16.998;2024-01-30T02:44:27;2.50;99.90
2907;DHT22;1463;51.070;16.998;2024-01-30T02:46:54;2.50;99.90
2907;DHT22;1463;51.070;16.998;2024-01-30T02:49:21;2.50;99.90
2907;DHT22;1463;51.070;16.998;2024-01-30T02:51:47;2.50;99.90
2907;DHT22;1463;51.070;16.998;2024-01-30T02:54:14;2.50;99.90
2907;DHT22;1463;51.070;16.998;2024-01-30T02:56:42;2.50;99.90
2907;DHT22;1463;51.070;16.998;2024-01-30T02:59:09;2.60;99.90
2907;DHT22;1463;51.070;16.998;2024-01-30T03:01:42;2.80;99.90
2907;DHT22;1463;51.070;16.998;2024-01-30T03:04:09;2.70;99.90
2907;DHT22;1463;51.070;16.998;2024-01-30T03:06:36;2.60;99.90
2907;DHT22;1463;51.070;16.998;2024-01-30T03:09:03;2.50;99.90
2907;DHT22;1463;51.070;16.998;2024-01-30T03:11:30;2.50;99.90
2907;DHT22;1463;51.070;16.998;2024-01-30T03:13:58;2.40;99.90
2907;DHT22;1463;51.070;16.998;2024-01-30T03:16:25;2.40;99.90
2907;DHT22;1463;51.070;16.998;2024-01-30T03:18:51;2.50;99.90
2907;DHT22;1463;51.070;16.998;2024-01-30T03:21:18;2.60;99.90
2907;DHT22;1463;51.070;16.998;2024-01-30T03:23:44;2.60;99.90
2907;DHT22;1463;51.070;16.998;2024-01-30T03:26:11;2.60;99.90
2907;DHT22;1463;51.070;16.998;2024-01-30T03:28:38;2.60;99.90
2907;DHT22;1463;51.070;16.998;2024-01-30T03:31:06;2.50;99.90
2907;DHT22;1463;51.070;16.998;2024-01-30T03:33:33;2.50;99.90
2907;DHT22;1463;51.070;16.998;2024-01-30T03:36:03;2.30;99.90
2907;DHT22;1463;51.070;16.998;2024-01-30T03:38:29;2.30;99.90
2907;DHT22;1463;51.070;16.998;2024-01-30T03:40:58;2.20;99.90
2907;DHT22;1463;51.070;16.998;2024-01-30T03:43:25;2.20;99.90
2907;DHT22;1463;51.070;16.998;2024-01-30T03:45:51;2.20;99.90
2907;DHT22;1463;51.070;16.998;2024-01-30T03:48:20;2.30;99.90
2907;DHT22;1463;51.070;16.998;2024-01-30T03:50:47;2.30;99.90
2907;DHT22;1463;51.070;16.998;2024-01-30T03:53:14;2.40;99.90
2907;DHT22;1463;51.070;16.998;2024-01-30T03:55:40;2.30;99.90
2907;DHT22;1463;51.070;16.998;2024-01-30T03:58:07;2.30;99.90
2907;DHT22;1463;51.070;16.998;2024-01-30T04:00:34;2.20;99.90
2907;DHT22;1463;51.070;16.998;2024-01-30T04:03:00;2.30;99.90
2907;DHT22;1463;51.070;16.998;2024-01-30T04:05:28;2.30;99.90
2907;DHT22;1463;51.070;16.998;2024-01-30T04:07:55;2.30;99.90
2907;DHT22;1463;51.070;16.998;2024-01-30T04:10:22;2.20;99.90
2907;DHT22;1463;51.070;16.998;2024-01-30T04:12:48;2.20;99.90
2907;DHT22;1463;51.070;16.998;2024-01-30T04:15:15;2.10;99.90
2907;DHT22;1463;51.070;16.998;2024-01-30T04:17:42;2.20;99.90
2907;DHT22;1463;51.070;16.998;2024-01-30T04:20:13;2.10;99.90
2907;DHT22;1463;51.070;16.998;2024-01-30T04:22:43;2.20;99.90
2907;DHT22;1463;51.070;16.998;2024-01-30T04:25:09;2.10;99.90
2907;DHT22;1463;51.070;16.998;2024-01-30T04:27:36;2.20;99.90
2907;DHT22;1463;51.070;16.998;2024-01-30T04:30:03;2.10;99.90
2907;DHT22;1463;51.070;16.998;2024-01-30T04:32:30;2.10;99.90
2907;DHT22;1463;51.070;16.998;2024-01-30T04:34:56;2.10;99.90
2907;DHT22;1463;51.070;16.998;2024-01-30T04:37:23;2.00;99.90
2907;DHT22;1463;51.070;16.998;2024-01-30T04:39:51;1.90;99.90
2907;DHT22;1463;51.070;16.998;2024-01-30T04:42:18;2.00;99.90
2907;DHT22;1463;51.070;16.998;2024-01-30T04:44:45;1.90;99.90
2907;DHT22;1463;51.070;16.998;2024-01-30T04:47:11;1.90;99.90
2907;DHT22;1463;51.070;16.998;2024-01-30T04:49:38;1.90;99.90
2907;DHT22;1463;51.070;16.998;2024-01-30T04:52:06;1.90;99.90
2907;DHT22;1463;51.070;16.998;2024-01-30T04:54:32;1.80;99.90
2907;DHT22;1463;51.070;16.998;2024-01-30T04:57:01;1.80;99.90
2907;DHT22;1463;51.070;16.998;2024-01-30T04:59:28;1.90;99.90
2907;DHT22;1463;51.070;16.998;2024-01-30T05:01:54;2.00;99.90
2907;DHT22;1463;51.070;16.998;2024-01-30T05:04:21;1.90;99.90
2907;DHT22;1463;51.070;16.998;2024-01-30T05:06:48;1.80;99.90
2907;DHT22;1463;51.070;16.998;2024-01-30T05:09:15;1.80;99.90
2907;DHT22;1463;51.070;16.998;2024-01-30T05:11:41;1.90;99.90
2907;DHT22;1463;51.070;16.998;2024-01-30T05:14:09;1.80;99.90
2907;DHT22;1463;51.070;16.998;2024-01-30T05:16:37;1.80;99.90
2907;DHT22;1463;51.070;16.998;2024-01-30T05:19:04;1.90;99.90
2907;DHT22;1463;51.070;16.998;2024-01-30T05:21:30;1.90;99.90
2907;DHT22;1463;51.070;16.998;2024-01-30T05:23:57;1.90;99.90
2907;DHT22;1463;51.070;16.998;2024-01-30T05:26:23;1.90;99.90
2907;DHT22;1463;51.070;16.998;2024-01-30T05:28:49;1.90;99.90
2907;DHT22;1463;51.070;16.998;2024-01-30T05:31:17;1.90;99.90
2907;DHT22;1463;51.070;16.998;2024-01-30T05:33:46;1.90;99.90
2907;DHT22;1463;51.070;16.998;2024-01-30T05:36:12;2.00;99.90
2907;DHT22;1463;51.070;16.998;2024-01-30T05:38:39;2.00;99.90
2907;DHT22;1463;51.070;16.998;2024-01-30T05:41:06;2.00;99.90
2907;DHT22;1463;51.070;16.998;2024-01-30T05:43:32;2.00;99.90
2907;DHT22;1463;51.070;16.998;2024-01-30T05:45:59;1.90;99.90
2907;DHT22;1463;51.070;16.998;2024-01-30T05:48:27;2.00;99.90
2907;DHT22;1463;51.070;16.998;2024-01-30T05:50:54;2.10;99.90
2907;DHT22;1463;51.070;16.998;2024-01-30T05:53:20;2.10;99.90
2907;DHT22;1463;51.070;16.998;2024-01-30T05:55:47;2.10;99.90
2907;DHT22;1463;51.070;16.998;2024-01-30T05:58:14;2.20;99.90
2907;DHT22;1463;51.070;16.998;2024-01-30T06:00:40;2.30;99.90
2907;DHT22;1463;51.070;16.998;2024-01-30T06:03:07;2.20;99.90
2907;DHT22;1463;51.070;16.998;2024-01-30T06:05:35;2.10;99.90
2907;DHT22;1463;51.070;16.998;2024-01-30T06:08:02;2.20;99.90
2907;DHT22;1463;51.070;16.998;2024-01-30T06:10:29;2.20;99.90
2907;DHT22;1463;51.070;16.998;2024-01-30T06:12:56;2.00;99.90
2907;DHT22;1463;51.070;16.998;2024-01-30T06:15:50;2.10;99.90
2907;DHT22;1463;51.070;16.998;2024-01-30T06:18:16;2.10;99.90
2907;DHT22;1463;51.070;16.998;2024-01-30T06:20:49;2.00;99.90
2907;DHT22;1463;51.070;16.998;2024-01-30T06:23:15;2.00;99.90
2907;DHT22;1463;51.070;16.998;2024-01-30T06:25:42;2.10;99.90
2907;DHT22;1463;51.070;16.998;2024-01-30T06:28:09;2.10;99.90
2907;DHT22;1463;51.070;16.998;2024-01-30T06:30:35;2.00;99.90
2907;DHT22;1463;51.070;16.998;2024-01-30T06:33:10;2.00;99.90
2907;DHT22;1463;51.070;16.998;2024-01-30T06:35:43;2.10;99.90
2907;DHT22;1463;51.070;16.998;2024-01-30T06:38:12;2.10;99.90
2907;DHT22;1463;51.070;16.998;2024-01-30T06:40:41;2.10;99.90
2907;DHT22;1463;51.070;16.998;2024-01-30T06:43:07;2.10;99.90
2907;DHT22;1463;51.070;16.998;2024-01-30T06:45:34;2.00;99.90
2907;DHT22;1463;51.070;16.998;2024-01-30T06:48:01;2.00;99.90
2907;DHT22;1463;51.070;16.998;2024-01-30T06:50:27;1.90;99.90
2907;DHT22;1463;51.070;16.998;2024-01-30T06:52:54;2.20;99.90
2907;DHT22;1463;51.070;16.998;2024-01-30T06:55:22;2.40;99.90
2907;DHT22;1463;51.070;16.998;2024-01-30T06:57:49;2.50;99.90
2907;DHT22;1463;51.070;16.998;2024-01-30T07:00:16;2.60;99.90
2907;DHT22;1463;51.070;16.998;2024-01-30T07:02:46;2.80;99.90
2907;DHT22;1463;51.070;16.998;2024-01-30T07:05:12;3.00;99.90
2907;DHT22;1463;51.070;16.998;2024-01-30T07:07:39;3.20;99.90
2907;DHT22;1463;51.070;16.998;2024-01-30T07:10:07;3.30;99.90
2907;DHT22;1463;51.070;16.998;2024-01-30T07:12:35;3.40;99.90
2907;DHT22;1463;51.070;16.998;2024-01-30T07:15:02;3.30;99.90
2907;DHT22;1463;51.070;16.998;2024-01-30T07:17:29;3.40;99.90
2907;DHT22;1463;51.070;16.998;2024-01-30T07:19:55;3.50;99.90
2907;DHT22;1463;51.070;16.998;2024-01-30T07:22:22;3.60;99.90
2907;DHT22;1463;51.070;16.998;2024-01-30T07:24:49;3.80;99.90
2907;DHT22;1463;51.070;16.998;2024-01-30T07:27:17;4.00;99.90
2907;DHT22;1463;51.070;16.998;2024-01-30T07:29:45;4.20;99.90
2907;DHT22;1463;51.070;16.998;2024-01-30T07:32:12;4.30;99.90
2907;DHT22;1463;51.070;16.998;2024-01-30T07:34:38;4.60;99.90
2907;DHT22;1463;51.070;16.998;2024-01-30T07:37:05;4.60;99.90
2907;DHT22;1463;51.070;16.998;2024-01-30T07:39:33;4.80;99.90
2907;DHT22;1463;51.070;16.998;2024-01-30T07:42:00;5.00;99.90
2907;DHT22;1463;51.070;16.998;2024-01-30T07:44:27;5.20;99.90
2907;DHT22;1463;51.070;16.998;2024-01-30T07:46:55;5.30;99.90
2907;DHT22;1463;51.070;16.998;2024-01-30T07:49:26;5.30;99.90
2907;DHT22;1463;51.070;16.998;2024-01-30T07:51:53;5.40;99.90
2907;DHT22;1463;51.070;16.998;2024-01-30T07:54:19;5.40;99.90
2907;DHT22;1463;51.070;16.998;2024-01-30T07:56:46;5.60;99.90
2907;DHT22;1463;51.070;16.998;2024-01-30T07:59:13;5.60;99.90
2907;DHT22;1463;51.070;16.998;2024-01-30T08:01:39;5.50;99.90
2907;DHT22;1463;51.070;16.998;2024-01-30T08:04:07;5.50;99.90
2907;DHT22;1463;51.070;16.998;2024-01-30T08:06:34;5.50;99.90
2907;DHT22;1463;51.070;16.998;2024-01-30T08:09:01;5.40;99.90
2907;DHT22;1463;51.070;16.998;2024-01-30T08:11:27;5.30;99.90
2907;DHT22;1463;51.070;16.998;2024-01-30T08:13:55;5.30;99.90
2907;DHT22;1463;51.070;16.998;2024-01-30T08:16:21;5.20;99.90
2907;DHT22;1463;51.070;16.998;2024-01-30T08:18:48;5.30;99.90
2907;DHT22;1463;51.070;16.998;2024-01-30T08:21:16;5.30;99.90
2907;DHT22;1463;51.070;16.998;2024-01-30T08:23:43;5.20;99.90
2907;DHT22;1463;51.070;16.998;2024-01-30T08:26:10;5.20;99.90
2907;DHT22;1463;51.070;16.998;2024-01-30T08:28:37;5.20;99.90
2907;DHT22;1463;51.070;16.998;2024-01-30T08:31:03;5.20;99.90
2907;DHT22;1463;51.070;16.998;2024-01-30T08:33:30;5.20;99.90
2907;DHT22;1463;51.070;16.998;2024-01-30T08:35:57;5.20;99.90
2907;DHT22;1463;51.070;16.998;2024-01-30T08:38:25;5.30;99.90
2907;DHT22;1463;51.070;16.998;2024-01-30T08:40:51;5.30;99.90
2907;DHT22;1463;51.070;16.998;2024-01-30T08:43:18;5.40;99.90
2907;DHT22;1463;51.070;16.998;2024-01-30T08:45:45;5.40;99.90
2907;DHT22;1463;51.070;16.998;2024-01-30T08:48:11;5.40;99.90
2907;DHT22;1463;51.070;16.998;2024-01-30T08:50:38;5.50;99.90
2907;DHT22;1463;51.070;16.998;2024-01-30T08:53:05;5.50;99.90
2907;DHT22;1463;51.070;16.998;2024-01-30T08:55:33;5.60;99.90
2907;DHT22;1463;51.070;16.998;2024-01-30T08:57:59;5.60;99.90
2907;DHT22;1463;51.070;16.998;2024-01-30T09:00:28;5.70;99.90
2907;DHT22;1463;51.070;16.998;2024-01-30T09:02:55;5.80;99.90
2907;DHT22;1463;51.070;16.998;2024-01-30T09:05:22;5.80;99.90
2907;DHT22;1463;51.070;16.998;2024-01-30T09:07:48;5.70;99.90
2907;DHT22;1463;51.070;16.998;2024-01-30T09:10:15;5.70;99.90
2907;DHT22;1463;51.070;16.998;2024-01-30T09:12:43;5.70;99.90
2907;DHT22;1463;51.070;16.998;2024-01-30T09:15:10;5.80;99.90
2907;DHT22;1463;51.070;16.998;2024-01-30T09:17:37;5.90;99.90
2907;DHT22;1463;51.070;16.998;2024-01-30T09:20:04;5.90;99.90
2907;DHT22;1463;51.070;16.998;2024-01-30T09:22:31;6.00;99.90
2907;DHT22;1463;51.070;16.998;2024-01-30T09:24:58;6.00;99.90
2907;DHT22;1463;51.070;16.998;2024-01-30T09:27:25;6.00;99.90
2907;DHT22;1463;51.070;16.998;2024-01-30T09:29:53;6.10;99.90
2907;DHT22;1463;51.070;16.998;2024-01-30T09:32:19;6.10;99.90
2907;DHT22;1463;51.070;16.998;2024-01-30T09:34:46;6.20;99.90
2907;DHT22;1463;51.070;16.998;2024-01-30T09:37:13;6.30;99.90
2907;DHT22;1463;51.070;16.998;2024-01-30T09:39:40;6.40;99.90
2907;DHT22;1463;51.070;16.998;2024-01-30T09:42:14;6.40;99.90
2907;DHT22;1463;51.070;16.998;2024-01-30T09:44:43;6.40;99.90
2907;DHT22;1463;51.070;16.998;2024-01-30T09:47:12;6.50;99.90
2907;DHT22;1463;51.070;16.998;2024-01-30T09:49:39;6.50;99.90
2907;DHT22;1463;51.070;16.998;2024-01-30T09:52:08;6.50;99.90
2907;DHT22;1463;51.070;16.998;2024-01-30T09:54:35;6.60;99.90
2907;DHT22;1463;51.070;16.998;2024-01-30T09:57:03;6.70;99.90
2907;DHT22;1463;51.070;16.998;2024-01-30T09:59:30;6.60;99.90
2907;DHT22;1463;51.070;16.998;2024-01-30T10:01:57;6.70;99.90
2907;DHT22;1463;51.070;16.998;2024-01-30T10:04:25;6.80;99.90
2907;DHT22;1463;51.070;16.998;2024-01-30T10:06:52;6.90;99.90
2907;DHT22;1463;51.070;16.998;2024-01-30T10:09:18;6.90;99.90
2907;DHT22;1463;51.070;16.998;2024-01-30T10:11:45;6.90;99.90
2907;DHT22;1463;51.070;16.998;2024-01-30T10:14:12;7.10;99.90
2907;DHT22;1463;51.070;16.998;2024-01-30T10:16:38;7.20;99.90
2907;DHT22;1463;51.070;16.998;2024-01-30T10:19:05;7.30;99.90
2907;DHT22;1463;51.070;16.998;2024-01-30T10:21:33;7.30;99.90
2907;DHT22;1463;51.070;16.998;2024-01-30T10:24:01;7.30;99.90
2907;DHT22;1463;51.070;16.998;2024-01-30T10:26:27;7.40;99.90
2907;DHT22;1463;51.070;16.998;2024-01-30T10:28:58;7.40;99.90
2907;DHT22;1463;51.070;16.998;2024-01-30T10:31:25;7.50;99.90
2907;DHT22;1463;51.070;16.998;2024-01-30T10:33:52;7.60;99.90
2907;DHT22;1463;51.070;16.998;2024-01-30T10:36:21;7.80;99.90
2907;DHT22;1463;51.070;16.998;2024-01-30T10:38:53;10.40;99.90
2907;DHT22;1463;51.070;16.998;2024-01-30T10:41:26;14.90;92.10
2907;DHT22;1463;51.070;16.998;2024-01-30T10:44:01;17.20;74.00
2907;DHT22;1463;51.070;16.998;2024-01-30T10:46:31;18.20;64.00
2907;DHT22;1463;51.070;16.998;2024-01-30T10:48:59;18.90;60.20
2907;DHT22;1463;51.070;16.998;2024-01-30T10:51:27;19.70;57.20
2907;DHT22;1463;51.070;16.998;2024-01-30T10:53:56;19.90;55.50
2907;DHT22;1463;51.070;16.998;2024-01-30T10:56:23;19.60;54.10
2907;DHT22;1463;51.070;16.998;2024-01-30T10:58:50;18.80;54.20
2907;DHT22;1463;51.070;16.998;2024-01-30T11:01:17;20.00;54.00
2907;DHT22;1463;51.070;16.998;2024-01-30T11:03:45;20.60;53.30
2907;DHT22;1463;51.070;16.998;2024-01-30T11:06:12;20.70;51.90
2907;DHT22;1463;51.070;16.998;2024-01-30T11:08:40;20.30;52.10
2907;DHT22;1463;51.070;16.998;2024-01-30T11:11:09;19.20;52.00
2907;DHT22;1463;51.070;16.998;2024-01-30T11:13:36;18.60;51.80
2907;DHT22;1463;51.070;16.998;2024-01-30T11:16:04;17.30;52.90
2907;DHT22;1463;51.070;16.998;2024-01-30T11:18:32;16.60;54.60
2907;DHT22;1463;51.070;16.998;2024-01-30T11:20:59;16.10;55.60
2907;DHT22;1463;51.070;16.998;2024-01-30T11:23:27;15.30;55.40
2907;DHT22;1463;51.070;16.998;2024-01-30T11:25:55;15.30;56.00
2907;DHT22;1463;51.070;16.998;2024-01-30T11:28:24;15.10;56.80
2907;DHT22;1463;51.070;16.998;2024-01-30T11:30:51;15.10;57.20
2907;DHT22;1463;51.070;16.998;2024-01-30T11:33:28;15.40;57.50
2907;DHT22;1463;51.070;16.998;2024-01-30T11:35:57;15.20;57.20
2907;DHT22;1463;51.070;16.998;2024-01-30T11:38:26;15.10;56.10
2907;DHT22;1463;51.070;16.998;2024-01-30T11:40:53;14.80;56.40
2907;DHT22;1463;51.070;16.998;2024-01-30T11:43:20;14.70;57.50
2907;DHT22;1463;51.070;16.998;2024-01-30T11:45:48;14.80;57.60
2907;DHT22;1463;51.070;16.998;2024-01-30T11:48:15;14.60;57.80
2907;DHT22;1463;51.070;16.998;2024-01-30T11:50:43;14.50;58.00
2907;DHT22;1463;51.070;16.998;2024-01-30T11:53:11;14.20;57.80
2907;DHT22;1463;51.070;16.998;2024-01-30T11:55:37;14.10;58.00
2907;DHT22;1463;51.070;16.998;2024-01-30T11:58:04;14.00;58.40
2907;DHT22;1463;51.070;16.998;2024-01-30T12:00:31;13.60;58.20
2907;DHT22;1463;51.070;16.998;2024-01-30T12:03:00;13.60;58.70
2907;DHT22;1463;51.070;16.998;2024-01-30T12:05:28;13.50;58.90
2907;DHT22;1463;51.070;16.998;2024-01-30T12:07:55;13.60;59.00
2907;DHT22;1463;51.070;16.998;2024-01-30T12:10:24;13.50;59.30
2907;DHT22;1463;51.070;16.998;2024-01-30T12:12:51;13.60;59.90
2907;DHT22;1463;51.070;16.998;2024-01-30T12:15:18;13.70;59.60
2907;DHT22;1463;51.070;16.998;2024-01-30T12:17:47;13.90;59.40
2907;DHT22;1463;51.070;16.998;2024-01-30T12:20:18;14.00;59.70
2907;DHT22;1463;51.070;16.998;2024-01-30T12:22:46;14.20;60.20
2907;DHT22;1463;51.070;16.998;2024-01-30T12:25:14;14.10;59.70
2907;DHT22;1463;51.070;16.998;2024-01-30T12:27:43;14.10;59.30
2907;DHT22;1463;51.070;16.998;2024-01-30T12:30:11;14.00;59.00
2907;DHT22;1463;51.070;16.998;2024-01-30T12:32:40;13.70;59.00
2907;DHT22;1463;51.070;16.998;2024-01-30T12:35:07;13.80;59.40
2907;DHT22;1463;51.070;16.998;2024-01-30T12:37:36;13.70;59.10
2907;DHT22;1463;51.070;16.998;2024-01-30T12:40:03;13.50;59.80
2907;DHT22;1463;51.070;16.998;2024-01-30T12:42:31;13.20;59.50
2907;DHT22;1463;51.070;16.998;2024-01-30T12:44:58;13.10;59.80
2907;DHT22;1463;51.070;16.998;2024-01-30T12:47:25;12.90;59.90
2907;DHT22;1463;51.070;16.998;2024-01-30T12:49:52;13.10;61.10
2907;DHT22;1463;51.070;16.998;2024-01-30T12:52:20;13.10;60.20
2907;DHT22;1463;51.070;16.998;2024-01-30T12:54:49;12.90;60.40
2907;DHT22;1463;51.070;16.998;2024-01-30T12:57:15;12.60;60.70
2907;DHT22;1463;51.070;16.998;2024-01-30T12:59:43;12.30;61.10
2907;DHT22;1463;51.070;16.998;2024-01-30T13:02:11;12.30;61.60
2907;DHT22;1463;51.070;16.998;2024-01-30T13:04:38;12.20;61.80
2907;DHT22;1463;51.070;16.998;2024-01-30T13:07:05;11.90;62.50
2907;DHT22;1463;51.070;16.998;2024-01-30T13:09:32;11.80;62.70
2907;DHT22;1463;51.070;16.998;2024-01-30T13:12:00;11.70;63.10
2907;DHT22;1463;51.070;16.998;2024-01-30T13:14:27;11.60;63.70
2907;DHT22;1463;51.070;16.998;2024-01-30T13:16:54;11.50;64.40
2907;DHT22;1463;51.070;16.998;2024-01-30T13:19:21;11.40;64.70
2907;DHT22;1463;51.070;16.998;2024-01-30T13:21:47;11.30;64.60
2907;DHT22;1463;51.070;16.998;2024-01-30T13:24:14;11.20;65.10
2907;DHT22;1463;51.070;16.998;2024-01-30T13:26:42;11.20;66.00
2907;DHT22;1463;51.070;16.998;2024-01-30T13:29:10;11.10;66.60
2907;DHT22;1463;51.070;16.998;2024-01-30T13:31:37;11.00;67.20
2907;DHT22;1463;51.070;16.998;2024-01-30T13:34:04;11.10;67.90
2907;DHT22;1463;51.070;16.998;2024-01-30T13:36:32;11.00;67.60
2907;DHT22;1463;51.070;16.998;2024-01-30T13:38:59;11.00;68.50
2907;DHT22;1463;51.070;16.998;2024-01-30T13:41:26;10.90;68.50
2907;DHT22;1463;51.070;16.998;2024-01-30T13:43:52;11.00;68.40
2907;DHT22;1463;51.070;16.998;2024-01-30T13:46:20;11.00;68.30
2907;DHT22;1463;51.070;16.998;2024-01-30T13:48:47;11.10;69.00
2907;DHT22;1463;51.070;16.998;2024-01-30T13:51:14;11.00;68.80
2907;DHT22;1463;51.070;16.998;2024-01-30T13:53:42;11.00;69.10
2907;DHT22;1463;51.070;16.998;2024-01-30T13:56:09;11.00;68.90
2907;DHT22;1463;51.070;16.998;2024-01-30T13:58:36;10.90;69.60
2907;DHT22;1463;51.070;16.998;2024-01-30T14:01:02;10.80;69.80
2907;DHT22;1463;51.070;16.998;2024-01-30T14:03:31;10.80;70.90
2907;DHT22;1463;51.070;16.998;2024-01-30T14:05:58;10.60;70.60
2907;DHT22;1463;51.070;16.998;2024-01-30T14:08:25;10.70;70.90
2907;DHT22;1463;51.070;16.998;2024-01-30T14:10:53;10.50;70.70
2907;DHT22;1463;51.070;16.998;2024-01-30T14:13:20;10.50;71.20
2907;DHT22;1463;51.070;16.998;2024-01-30T14:15:48;10.50;71.60
2907;DHT22;1463;51.070;16.998;2024-01-30T14:18:14;10.50;71.70
2907;DHT22;1463;51.070;16.998;2024-01-30T14:20:43;10.40;72.00
2907;DHT22;1463;51.070;16.998;2024-01-30T14:23:09;10.40;72.40
2907;DHT22;1463;51.070;16.998;2024-01-30T14:25:36;10.30;73.30
2907;DHT22;1463;51.070;16.998;2024-01-30T14:28:03;10.20;74.20
2907;DHT22;1463;51.070;16.998;2024-01-30T14:30:30;10.10;74.60
2907;DHT22;1463;51.070;16.998;2024-01-30T14:32:57;10.00;75.30
2907;DHT22;1463;51.070;16.998;2024-01-30T14:35:23;9.90;77.00
2907;DHT22;1463;51.070;16.998;2024-01-30T14:37:51;10.10;76.50
2907;DHT22;1463;51.070;16.998;2024-01-30T14:40:19;9.90;77.80
2907;DHT22;1463;51.070;16.998;2024-01-30T14:42:46;10.00;77.40
2907;DHT22;1463;51.070;16.998;2024-01-30T14:45:13;10.10;77.60
2907;DHT22;1463;51.070;16.998;2024-01-30T14:47:40;10.10;77.10
2907;DHT22;1463;51.070;16.998;2024-01-30T14:50:07;10.20;76.90
2907;DHT22;1463;51.070;16.998;2024-01-30T14:52:34;10.20;76.60
2907;DHT22;1463;51.070;16.998;2024-01-30T14:55:03;10.20;77.30
2907;DHT22;1463;51.070;16.998;2024-01-30T14:57:29;10.10;77.10
2907;DHT22;1463;51.070;16.998;2024-01-30T14:59:56;10.10;77.60
2907;DHT22;1463;51.070;16.998;2024-01-30T15:02:23;10.00;78.10
2907;DHT22;1463;51.070;16.998;2024-01-30T15:04:50;9.90;79.40
2907;DHT22;1463;51.070;16.998;2024-01-30T15:07:17;9.80;79.70
2907;DHT22;1463;51.070;16.998;2024-01-30T15:09:44;9.80;80.10
2907;DHT22;1463;51.070;16.998;2024-01-30T15:12:12;9.80;79.90
2907;DHT22;1463;51.070;16.998;2024-01-30T15:14:39;9.80;80.30
2907;DHT22;1463;51.070;16.998;2024-01-30T15:17:05;9.60;80.80
2907;DHT22;1463;51.070;16.998;2024-01-30T15:19:32;9.60;80.90
2907;DHT22;1463;51.070;16.998;2024-01-30T15:21:59;9.50;81.00
2907;DHT22;1463;51.070;16.998;2024-01-30T15:24:25;9.40;81.70
2907;DHT22;1463;51.070;16.998;2024-01-30T15:26:52;9.30;81.60
2907;DHT22;1463;51.070;16.998;2024-01-30T15:29:20;9.40;81.80
2907;DHT22;1463;51.070;16.998;2024-01-30T15:31:48;9.30;82.10
2907;DHT22;1463;51.070;16.998;2024-01-30T15:34:15;9.30;82.50
2907;DHT22;1463;51.070;16.998;2024-01-30T15:36:41;9.10;82.70
2907;DHT22;1463;51.070;16.998;2024-01-30T15:39:08;9.10;83.40
2907;DHT22;1463;51.070;16.998;2024-01-30T15:41:36;9.10;83.90
2907;DHT22;1463;51.070;16.998;2024-01-30T15:44:03;9.00;83.90
2907;DHT22;1463;51.070;16.998;2024-01-30T15:46:31;9.00;84.60
2907;DHT22;1463;51.070;16.998;2024-01-30T15:48:58;9.00;85.00
2907;DHT22;1463;51.070;16.998;2024-01-30T15:51:25;8.90;85.40
2907;DHT22;1463;51.070;16.998;2024-01-30T15:53:52;8.80;86.00
2907;DHT22;1463;51.070;16.998;2024-01-30T15:56:19;8.70;86.50